Cotes De Bretagne — FW3973 — position and weather

sailwx.info

Track history (hours):
 
Tides and Currents Weather Stations Pressure Air Temp Water Temp Dewpoint Dewpoint Depression Visibility Wind Speed Wind Dir Waves Ship Positions

Cotes De Bretagne

Last reported at 2014-Oct-22 18:33 UTC. Time now 2014-Oct-23 01:44 UTC.
Position N 47°35' W 003°33'.

Length 75 m; draft 4.1 m.

Type: Dredging. MMSI: 227003850.

Date/timePositionNaut miles runAvg speedWind from/ knotsBaromVisibWave heightAir tempDewpointWater temp
2014-Oct-22 18:33N 47°35' W 003°33'1110.7
2014-Oct-22 17:33N 47°41' W 003°45'20 9.9
2014-Oct-22 15:33N 47°54' W 004°08'5 0.2
2014-Oct-21 19:33N 47°58' W 004°06'7 0.4
2014-Oct-21 00:33N 47°51' W 004°07'26 8.6
2014-Oct-20 21:33N 47°36' W 003°35'11 8.9
2014-Oct-20 20:18N 47°29' W 003°22'21 1.9
2014-Oct-20 09:19N 47°18' W 002°55'8 9.9
2014-Oct-20 08:33N 47°22' W 003°05'11 9.9
2014-Oct-20 07:26N 47°27' W 003°20'9 9.9
2014-Oct-20 06:33N 47°30' W 003°32'29 9.7
2014-Oct-20 03:33N 47°41' W 004°12'3010.0
2014-Oct-20 00:34N 48°01' W 004°45'9 8.8
2014-Oct-19 23:34N 48°10' W 004°45'10 9.5
2014-Oct-19 22:33N 48°20' W 004°48'8 8.3
2014-Oct-19 21:34N 48°28' W 004°50'9 9.4
2014-Oct-19 20:33N 48°37' W 004°49'2110.6
2014-Oct-19 18:33N 48°44' W 004°19'  
2014-Oct-15 17:34N 48°40' W 002°09'108 5.6
2014-Oct-14 22:22N 48°26' W 004°50'7 8.5
2014-Oct-14 21:34N 48°20' W 004°48'10 9.8
2014-Oct-14 20:33N 48°10' W 004°45'9 9.0
2014-Oct-14 19:34N 48°01' W 004°45'7610.8
2014-Oct-14 12:33N 47°23' W 003°07'38 7.0
2014-Oct-14 07:08N 47°17' W 002°12'30 4.5
2014-Oct-14 00:21N 46°47' W 002°17'7 8.5
2014-Oct-13 23:30N 46°41' W 002°11'8 8.7
2014-Oct-13 22:33N 46°34' W 002°04'9 8.6
2014-Oct-13 21:34N 46°27' W 001°57'9 8.6
2014-Oct-13 20:33N 46°20' W 001°50'8 8.4
2014-Oct-13 19:34N 46°13' W 001°44'5 1.1
2014-Oct-13 15:15N 46°09' W 001°38'7 9.9
2014-Oct-13 14:34N 46°15' W 001°44'10 9.9
2014-Oct-13 13:34N 46°22' W 001°54'10 9.6
2014-Oct-13 12:34N 46°31' W 002°01'10 9.6
2014-Oct-13 11:34N 46°38' W 002°08'  
Track history (hours):
 
Tides and Currents Weather Stations Pressure Air Temp Water Temp Dewpoint Dewpoint Depression Visibility Wind Speed Wind Dir Waves Ship Positions

Cotes De Bretagne

Last reported at 2014-Oct-22 18:33 UTC. Time now 2014-Oct-23 01:44 UTC.
Position N 47°35' W 003°33'.

Length 75 m; draft 4.1 m.

Type: Dredging. MMSI: 227003850.

Date/timePositionNaut miles runAvg speedWind from/ knotsBaromVisibWave heightAir tempDewpointWater temp
2014-Oct-22 18:33N 47°35' W 003°33'1110.7
2014-Oct-22 17:33N 47°41' W 003°45'20 9.9
2014-Oct-22 15:33N 47°54' W 004°08'5 0.2
2014-Oct-21 19:33N 47°58' W 004°06'7 0.4
2014-Oct-21 00:33N 47°51' W 004°07'26 8.6
2014-Oct-20 21:33N 47°36' W 003°35'11 8.9
2014-Oct-20 20:18N 47°29' W 003°22'21 1.9
2014-Oct-20 09:19N 47°18' W 002°55'8 9.9
2014-Oct-20 08:33N 47°22' W 003°05'11 9.9
2014-Oct-20 07:26N 47°27' W 003°20'9 9.9
2014-Oct-20 06:33N 47°30' W 003°32'29 9.7
2014-Oct-20 03:33N 47°41' W 004°12'3010.0
2014-Oct-20 00:34N 48°01' W 004°45'9 8.8
2014-Oct-19 23:34N 48°10' W 004°45'10 9.5
2014-Oct-19 22:33N 48°20' W 004°48'8 8.3
2014-Oct-19 21:34N 48°28' W 004°50'9 9.4
2014-Oct-19 20:33N 48°37' W 004°49'2110.6
2014-Oct-19 18:33N 48°44' W 004°19'  
2014-Oct-15 17:34N 48°40' W 002°09'108 5.6
2014-Oct-14 22:22N 48°26' W 004°50'7 8.5
2014-Oct-14 21:34N 48°20' W 004°48'10 9.8
2014-Oct-14 20:33N 48°10' W 004°45'9 9.0
2014-Oct-14 19:34N 48°01' W 004°45'7610.8
2014-Oct-14 12:33N 47°23' W 003°07'38 7.0
2014-Oct-14 07:08N 47°17' W 002°12'30 4.5
2014-Oct-14 00:21N 46°47' W 002°17'7 8.5
2014-Oct-13 23:30N 46°41' W 002°11'8 8.7
2014-Oct-13 22:33N 46°34' W 002°04'9 8.6
2014-Oct-13 21:34N 46°27' W 001°57'9 8.6
2014-Oct-13 20:33N 46°20' W 001°50'8 8.4
2014-Oct-13 19:34N 46°13' W 001°44'5 1.1
2014-Oct-13 15:15N 46°09' W 001°38'7 9.9
2014-Oct-13 14:34N 46°15' W 001°44'10 9.9
2014-Oct-13 13:34N 46°22' W 001°54'10 9.6
2014-Oct-13 12:34N 46°31' W 002°01'10 9.6
2014-Oct-13 11:34N 46°38' W 002°08'  

Dump ship's entire track history